Time;durP1;ratioP1;P1;durP2;ratioP2;P2;SDS_P1;SDS_P2;PMS_P1;PMS_P2;Temp;Humidity;BMP_temperature;BMP_pressure;BME280_temperature;BME280_humidity;BME280_pressure;Samples;Min_cycle;Max_cycle;Signal;HPM_P1;HPM_P2
2023/04/18 00:00:48;;;;;;;;;1.00;1.00;;;;;20.80;52.32;101878.55;110114;1264;21486;-40
2023/04/18 00:03:16;;;;;;;;;1.00;1.00;;;;;20.81;52.49;101878.66;110087;1251;19676;-40
2023/04/18 00:05:46;;;;;;;;;1.00;1.00;;;;;20.81;52.39;101879.95;110090;1264;21577;-43
2023/04/18 00:08:14;;;;;;;;;1.00;1.00;;;;;20.81;52.41;101875.39;110095;1250;21549;-41
2023/04/18 00:10:41;;;;;;;;;1.00;1.00;;;;;20.82;52.49;101875.70;110089;1260;19618;-41
2023/04/18 00:13:09;;;;;;;;;2.00;1.00;;;;;20.81;52.39;101875.74;110082;1251;24132;-39
2023/04/18 00:15:36;;;;;;;;;1.00;1.00;;;;;20.82;52.42;101879.16;110104;1264;21714;-40
2023/04/18 00:18:04;;;;;;;;;1.00;1.00;;;;;20.81;52.50;101875.05;110077;1264;19130;-40
2023/04/18 00:20:32;;;;;;;;;1.00;1.00;;;;;20.81;52.45;101872.16;110178;1264;23407;-39
2023/04/18 00:23:00;;;;;;;;;1.00;1.00;;;;;20.81;52.43;101880.15;110287;1257;20237;-39
2023/04/18 00:25:28;;;;;;;;;1.50;1.50;;;;;20.80;52.27;101878.35;110303;1264;19740;-39
2023/04/18 00:27:55;;;;;;;;;1.00;1.00;;;;;20.81;52.46;101879.92;110208;1250;23163;-41
2023/04/18 00:30:22;;;;;;;;;1.00;1.00;;;;;20.81;52.52;101878.46;110205;1264;20124;-40
2023/04/18 00:32:50;;;;;;;;;1.00;1.00;;;;;20.81;52.49;101882.31;110241;1264;23405;-40
2023/04/18 00:35:17;;;;;;;;;1.00;1.00;;;;;20.81;52.47;101882.48;110223;1264;20636;-40
2023/04/18 00:37:45;;;;;;;;;1.00;1.00;;;;;20.81;52.43;101884.63;110229;1264;21603;-40
2023/04/18 00:40:12;;;;;;;;;2.00;2.00;;;;;20.81;52.44;101883.39;110220;1251;19636;-40
2023/04/18 00:42:40;;;;;;;;;2.00;2.00;;;;;20.81;52.49;101877.95;110265;1264;19250;-41
2023/04/18 00:45:07;;;;;;;;;2.00;2.00;;;;;20.80;52.54;101878.01;110259;1264;20180;-40
2023/04/18 00:47:35;;;;;;;;;1.00;1.00;;;;;20.81;52.35;101880.36;110246;1264;19227;-44
2023/04/18 00:50:02;;;;;;;;;3.00;1.50;;;;;20.80;52.55;101879.67;110167;1264;23464;-39
2023/04/18 00:52:32;;;;;;;;;1.00;1.00;;;;;20.81;52.35;101882.27;110149;1249;21563;-40
2023/04/18 00:55:00;;;;;;;;;2.00;2.00;;;;;20.81;52.24;101878.29;110261;1264;23611;-40
2023/04/18 00:57:27;;;;;;;;;1.00;1.00;;;;;20.81;52.47;101877.05;110244;1257;23129;-40
2023/04/18 00:59:55;;;;;;;;;1.00;1.00;;;;;20.82;52.44;101877.70;110213;1251;21610;-39
2023/04/18 01:02:24;;;;;;;;;1.50;1.50;;;;;20.82;52.54;101881.55;110194;1251;23573;-39
2023/04/18 01:04:52;;;;;;;;;2.00;1.33;;;;;20.82;52.59;101884.80;110176;1250;20948;-40
2023/04/18 01:07:19;;;;;;;;;2.00;2.00;;;;;20.81;52.34;101881.95;110193;1251;20339;-41
2023/04/18 01:09:47;;;;;;;;;2.00;2.00;;;;;20.82;52.45;101886.28;110210;1258;19168;-40
2023/04/18 01:12:14;;;;;;;;;1.00;1.00;;;;;20.82;52.35;101895.15;110182;1264;23082;-41
2023/04/18 01:14:42;;;;;;;;;2.00;2.00;;;;;20.82;52.35;101896.39;110184;1264;21482;-40
2023/04/18 01:17:12;;;;;;;;;1.00;1.00;;;;;20.80;52.38;101893.44;110169;1264;19021;-40
2023/04/18 01:19:39;;;;;;;;;1.00;1.00;;;;;20.81;52.53;101888.84;110161;1264;23039;-41
2023/04/18 01:22:07;;;;;;;;;1.00;1.00;;;;;20.81;52.39;101894.27;110183;1251;21558;-41
2023/04/18 01:24:34;;;;;;;;;1.00;1.00;;;;;20.81;52.36;101900.27;110204;1250;19517;-43
2023/04/18 01:27:02;;;;;;;;;2.00;1.00;;;;;20.81;52.41;101897.54;110192;1264;23125;-39
2023/04/18 01:29:29;;;;;;;;;1.00;1.00;;;;;20.81;52.61;101892.28;110209;1264;20541;-41
2023/04/18 01:31:57;;;;;;;;;1.00;1.00;;;;;20.80;52.55;101886.70;110197;1264;19215;-40
2023/04/18 01:34:25;;;;;;;;;1.50;1.50;;;;;20.82;52.59;101889.45;110181;1264;23135;-40
2023/04/18 01:36:52;;;;;;;;;2.00;2.00;;;;;20.83;52.32;101887.96;110186;1250;23634;-40
2023/04/18 01:39:20;;;;;;;;;1.00;1.00;;;;;20.81;52.41;101883.39;110200;1264;19565;-40
2023/04/18 01:41:47;;;;;;;;;1.00;1.00;;;;;20.82;52.33;101886.79;110227;1250;22309;-40
2023/04/18 01:44:15;;;;;;;;;1.00;1.00;;;;;20.81;52.47;101883.77;110161;1264;20089;-41
2023/04/18 01:46:42;;;;;;;;;1.00;1.00;;;;;20.82;52.56;101884.60;110163;1260;19767;-40
2023/04/18 01:49:10;;;;;;;;;1.00;1.00;;;;;20.82;52.44;101884.77;110170;1264;19333;-40
2023/04/18 01:51:38;;;;;;;;;4.00;4.00;;;;;20.82;52.53;101881.85;110123;1250;20139;-40
2023/04/18 01:54:05;;;;;;;;;1.00;1.00;;;;;20.82;52.44;101878.23;110210;1251;22418;-40
2023/04/18 01:56:33;;;;;;;;;1.00;1.00;;;;;20.82;52.52;101879.14;110166;1264;21464;-40
2023/04/18 01:59:00;;;;;;;;;2.00;2.00;;;;;20.82;52.40;101880.73;110229;1251;21813;-40
2023/04/18 02:01:28;;;;;;;;;1.00;1.00;;;;;20.82;52.44;101878.23;110188;1264;19263;-40
2023/04/18 02:03:55;;;;;;;;;1.00;1.00;;;;;20.83;52.64;101876.72;110185;1264;20804;-40
2023/04/18 02:06:23;;;;;;;;;2.00;2.00;;;;;20.82;52.41;101878.17;110226;1264;22598;-40
2023/04/18 02:08:50;;;;;;;;;1.00;1.00;;;;;20.82;52.60;101880.94;110203;1251;19618;-41
2023/04/18 02:11:17;;;;;;;;;1.00;1.00;;;;;20.82;52.36;101879.36;110185;1264;20659;-41
2023/04/18 02:13:45;;;;;;;;;2.00;1.00;;;;;20.81;52.50;101879.73;110191;1251;22706;-43
2023/04/18 02:16:12;;;;;;;;;1.00;1.00;;;;;20.82;52.32;101879.48;110191;1250;19130;-41
2023/04/18 02:18:40;;;;;;;;;1.00;1.00;;;;;20.83;52.51;101878.52;110250;1264;19328;-40
2023/04/18 02:21:09;;;;;;;;;2.00;2.00;;;;;20.82;52.50;101878.39;110176;1265;21518;-40
2023/04/18 02:23:37;;;;;;;;;1.00;1.00;;;;;20.82;52.34;101876.77;110207;1259;21194;-40
2023/04/18 02:26:05;;;;;;;;;1.50;1.50;;;;;20.82;52.42;101873.35;110201;1264;20683;-41
2023/04/18 02:28:32;;;;;;;;;1.00;1.00;;;;;20.82;52.39;101874.91;110186;1265;20122;-40
2023/04/18 02:31:00;;;;;;;;;1.00;1.00;;;;;20.82;52.59;101873.33;110170;1265;22983;-40
2023/04/18 02:33:28;;;;;;;;;2.00;2.00;;;;;20.82;52.57;101872.96;110183;1265;20699;-39
2023/04/18 02:35:55;;;;;;;;;1.00;1.00;;;;;20.81;52.58;101870.52;110198;1266;20340;-39
2023/04/18 02:38:22;;;;;;;;;1.00;1.00;;;;;20.82;52.63;101873.13;110181;1265;19059;-39
2023/04/18 02:40:50;;;;;;;;;2.00;2.00;;;;;20.82;52.52;101868.80;110168;1266;19302;-40
2023/04/18 02:43:17;;;;;;;;;1.00;1.00;;;;;20.82;52.51;101867.54;110175;1265;22965;-40
2023/04/18 02:45:45;;;;;;;;;1.00;1.00;;;;;20.81;52.49;101871.55;110189;1266;19603;-39
2023/04/18 02:48:12;;;;;;;;;4.00;3.33;;;;;20.81;52.47;101869.75;110198;1266;19512;-39
2023/04/18 02:50:39;;;;;;;;;1.00;1.00;;;;;20.82;52.48;101871.90;110182;1251;23251;-39
2023/04/18 02:53:07;;;;;;;;;2.00;1.50;;;;;20.82;52.42;101878.55;110174;1251;19764;-40
2023/04/18 02:55:34;;;;;;;;;1.00;1.00;;;;;20.82;52.55;101878.98;110171;1265;19681;-41
2023/04/18 02:58:02;;;;;;;;;1.00;1.00;;;;;20.82;52.54;101880.21;110183;1265;21818;-40
2023/04/18 03:00:29;;;;;;;;;1.00;1.00;;;;;20.82;52.56;101878.46;110163;1265;20683;-45
2023/04/18 03:02:57;;;;;;;;;1.00;1.00;;;;;20.82;52.60;101879.66;110029;1266;20757;-40
2023/04/18 03:05:25;;;;;;;;;2.00;1.00;;;;;20.83;52.52;101880.15;110004;1266;21496;-40
2023/04/18 03:07:52;;;;;;;;;1.00;1.00;;;;;20.82;52.64;101882.20;109995;1266;19549;-38
2023/04/18 03:10:19;;;;;;;;;1.00;1.00;;;;;20.82;52.53;101881.48;110008;1251;21776;-41
2023/04/18 03:12:47;;;;;;;;;2.00;2.00;;;;;20.82;52.52;101882.05;110025;1266;21502;-39
2023/04/18 03:15:15;;;;;;;;;1.00;1.00;;;;;20.82;52.37;101880.96;109939;1266;19646;-40
2023/04/18 03:17:42;;;;;;;;;1.00;1.00;;;;;20.82;52.62;101882.95;109903;1260;19499;-37
2023/04/18 03:20:11;;;;;;;;;2.00;2.00;;;;;20.82;52.55;101882.02;110045;1251;21575;-39
2023/04/18 03:22:38;;;;;;;;;1.00;1.00;;;;;20.82;52.69;101878.06;110041;1266;19533;-39
2023/04/18 03:25:06;;;;;;;;;1.00;1.00;;;;;20.82;52.44;101882.77;110030;1266;23199;-39
2023/04/18 03:27:33;;;;;;;;;1.00;1.00;;;;;20.82;52.47;101881.29;110012;1251;20135;-38
2023/04/18 03:30:00;;;;;;;;;1.00;1.00;;;;;20.82;52.77;101884.21;110005;1266;19170;-39
2023/04/18 03:32:28;;;;;;;;;1.00;1.00;;;;;20.81;52.52;101883.56;110012;1251;19353;-39
2023/04/18 03:34:55;;;;;;;;;1.67;1.67;;;;;20.82;52.69;101887.30;110010;1266;20118;-40
2023/04/18 03:37:23;;;;;;;;;1.00;1.00;;;;;20.82;52.61;101886.05;110004;1254;19622;-40
2023/04/18 03:39:50;;;;;;;;;1.00;1.00;;;;;20.82;52.57;101885.27;110004;1260;19383;-40
2023/04/18 03:42:17;;;;;;;;;1.00;1.00;;;;;20.82;52.48;101886.76;109981;1266;20124;-40
2023/04/18 03:44:45;;;;;;;;;1.50;1.50;;;;;20.83;52.41;101888.70;110058;1266;20516;-39
2023/04/18 03:47:13;;;;;;;;;1.00;1.00;;;;;20.83;52.63;101888.71;110056;1266;23419;-40
2023/04/18 03:49:41;;;;;;;;;4.00;2.00;;;;;20.82;52.62;101889.45;110060;1251;23662;-40
2023/04/18 03:52:08;;;;;;;;;2.00;1.00;;;;;20.81;52.48;101887.02;110015;1266;22984;-40
2023/04/18 03:54:35;;;;;;;;;1.00;1.00;;;;;20.81;52.59;101887.53;110029;1266;19380;-41
2023/04/18 03:57:03;;;;;;;;;1.00;1.00;;;;;20.83;52.49;101887.08;110056;1266;21443;-40
2023/04/18 03:59:30;;;;;;;;;2.00;2.00;;;;;20.82;52.41;101887.54;110018;1266;23599;-38
2023/04/18 04:01:58;;;;;;;;;1.50;1.00;;;;;20.81;52.60;101886.98;110156;1265;20685;-39
2023/04/18 04:04:26;;;;;;;;;1.00;1.00;;;;;20.82;52.65;101893.49;110246;1261;20607;-40
2023/04/18 04:06:53;;;;;;;;;1.00;1.00;;;;;20.82;52.65;101888.23;110213;1251;19068;-38
2023/04/18 04:09:20;;;;;;;;;2.00;1.00;;;;;20.82;52.66;101893.30;110204;1265;22632;-39
2023/04/18 04:11:48;;;;;;;;;1.50;1.00;;;;;20.82;52.58;101896.94;110224;1250;21500;-39
2023/04/18 04:14:15;;;;;;;;;1.00;1.00;;;;;20.81;52.72;101896.98;110258;1266;19581;-39
2023/04/18 04:16:43;;;;;;;;;1.00;1.00;;;;;20.81;52.73;101900.98;110227;1265;20850;-39
2023/04/18 04:19:10;;;;;;;;;3.00;2.00;;;;;20.82;52.65;101903.85;110230;1265;20202;-39
2023/04/18 04:21:38;;;;;;;;;1.00;1.00;;;;;20.82;52.43;101901.09;110246;1251;20388;-39
2023/04/18 04:24:05;;;;;;;;;1.00;1.00;;;;;20.83;52.57;101901.76;110222;1251;20649;-40
2023/04/18 04:26:33;;;;;;;;;1.00;1.00;;;;;20.83;52.52;101905.27;110255;1261;21410;-39
2023/04/18 04:29:01;;;;;;;;;1.00;1.00;;;;;20.82;52.48;101905.51;110162;1251;19659;-40
2023/04/18 04:31:28;;;;;;;;;1.00;1.00;;;;;20.83;52.63;101912.11;110163;1265;23036;-39
2023/04/18 04:33:56;;;;;;;;;1.00;1.00;;;;;20.82;52.54;101909.82;110242;1251;22732;-39
2023/04/18 04:36:26;;;;;;;;;2.00;2.00;;;;;20.82;52.76;101915.30;110196;1264;19028;-39
2023/04/18 04:38:53;;;;;;;;;1.50;1.00;;;;;20.82;52.70;101911.84;110207;1264;21643;-39
2023/04/18 04:41:21;;;;;;;;;1.67;1.67;;;;;20.82;52.53;101909.65;110219;1264;20124;-40
2023/04/18 04:43:50;;;;;;;;;1.00;1.00;;;;;20.82;52.69;101912.94;110238;1264;23373;-39
2023/04/18 04:46:18;;;;;;;;;1.00;1.00;;;;;20.82;52.65;101918.60;110240;1264;23336;-39
2023/04/18 04:48:46;;;;;;;;;1.00;1.00;;;;;20.82;52.54;101919.98;110233;1264;20145;-39
2023/04/18 04:51:13;;;;;;;;;1.00;1.00;;;;;20.82;52.62;101920.01;110262;1251;21035;-39
2023/04/18 04:53:40;;;;;;;;;2.00;2.00;;;;;20.85;52.56;101922.79;110224;1264;23673;-39
2023/04/18 04:56:08;;;;;;;;;1.00;1.00;;;;;20.87;52.62;101927.02;110251;1264;22441;-39
2023/04/18 04:58:35;;;;;;;;;1.00;1.00;;;;;20.90;52.75;101925.05;110221;1264;22227;-39
2023/04/18 05:01:03;;;;;;;;;2.00;2.00;;;;;20.94;52.89;101924.69;110239;1264;20991;-39
2023/04/18 05:03:30;;;;;;;;;2.00;2.00;;;;;20.94;52.94;101926.98;110235;1264;20354;-39
2023/04/18 05:05:58;;;;;;;;;2.00;2.00;;;;;20.95;52.99;101924.58;110256;1264;20871;-41
2023/04/18 05:08:26;;;;;;;;;21.00;20.00;;;;;20.96;53.02;101927.71;110205;1256;21049;-38
2023/04/18 05:10:53;;;;;;;;;21.00;20.00;;;;;20.99;53.30;101927.42;110271;1264;21370;-39
2023/04/18 05:13:20;;;;;;;;;17.00;16.67;;;;;21.01;54.02;101925.23;110144;1264;20206;-39
2023/04/18 05:15:48;;;;;;;;;17.00;16.50;;;;;21.04;54.95;101922.22;110166;1264;23215;-41
2023/04/18 05:18:15;;;;;;;;;14.00;13.50;;;;;21.07;55.72;101921.54;110225;1250;20424;-40
2023/04/18 05:20:43;;;;;;;;;11.00;11.00;;;;;21.08;55.70;101920.28;110130;1264;19268;-40
2023/04/18 05:23:10;;;;;;;;;10.00;10.00;;;;;21.07;55.64;101923.85;110232;1264;19424;-40
2023/04/18 05:25:38;;;;;;;;;9.00;8.00;;;;;21.05;55.49;101921.33;110219;1264;23580;-40
2023/04/18 05:28:07;;;;;;;;;6.00;6.00;;;;;21.06;55.23;101919.48;110195;1264;19930;-40
2023/04/18 05:30:34;;;;;;;;;5.00;5.00;;;;;21.04;55.20;101920.92;110196;1251;20808;-40
2023/04/18 05:33:02;;;;;;;;;5.00;5.00;;;;;21.02;55.02;101918.94;110234;1251;21559;-40
2023/04/18 05:35:29;;;;;;;;;5.00;5.00;;;;;21.00;54.81;101920.21;110181;1257;23295;-40
2023/04/18 05:37:57;;;;;;;;;4.00;4.00;;;;;20.98;55.09;101925.02;110267;1264;19233;-40
2023/04/18 05:40:24;;;;;;;;;4.00;4.00;;;;;20.98;54.82;101920.23;110167;1264;20247;-42
2023/04/18 05:42:51;;;;;;;;;5.00;5.00;;;;;20.99;54.71;101917.21;110109;1264;23631;-39
2023/04/18 05:45:19;;;;;;;;;5.00;5.00;;;;;21.00;54.78;101920.73;110266;1250;19529;-40
2023/04/18 05:47:46;;;;;;;;;4.00;4.00;;;;;21.00;54.60;101919.30;110246;1264;21472;-39
2023/04/18 05:50:14;;;;;;;;;2.00;2.00;;;;;21.00;54.74;101914.45;110233;1251;21681;-40
2023/04/18 05:52:41;;;;;;;;;2.00;2.00;;;;;20.98;54.65;101916.83;110196;1264;19345;-39
2023/04/18 05:55:08;;;;;;;;;2.00;2.00;;;;;20.98;54.52;101917.71;110203;1257;23529;-39
2023/04/18 05:57:36;;;;;;;;;2.00;2.00;;;;;20.97;54.47;101920.89;110199;1251;21009;-40
2023/04/18 06:00:06;;;;;;;;;2.00;2.00;;;;;20.96;54.57;101922.20;110224;1264;20774;-40
2023/04/18 06:02:34;;;;;;;;;2.00;2.00;;;;;20.95;54.43;101924.68;110230;1251;24068;-40
2023/04/18 06:05:01;;;;;;;;;2.00;2.00;;;;;20.95;54.48;101923.66;110238;1264;19236;-40
2023/04/18 06:07:29;;;;;;;;;2.00;2.00;;;;;20.95;54.36;101927.10;110220;1264;20688;-42
2023/04/18 06:09:56;;;;;;;;;2.00;2.00;;;;;20.94;54.26;101924.09;110209;1250;20169;-39
2023/04/18 06:12:23;;;;;;;;;2.00;2.00;;;;;20.94;54.26;101925.55;110190;1251;22862;-39
2023/04/18 06:14:51;;;;;;;;;2.00;2.00;;;;;20.93;54.31;101927.79;110194;1251;20779;-41
2023/04/18 06:17:20;;;;;;;;;2.00;2.00;;;;;20.93;54.28;101929.30;110232;1264;20135;-38
2023/04/18 06:19:47;;;;;;;;;4.00;2.00;;;;;20.92;54.22;101928.44;110251;1264;19160;-38
2023/04/18 06:22:15;;;;;;;;;2.00;2.00;;;;;20.93;54.24;101924.40;110265;1264;19366;-40
2023/04/18 06:24:42;;;;;;;;;2.00;2.00;;;;;20.93;54.18;101926.39;110193;1264;21600;-41
2023/04/18 06:27:10;;;;;;;;;5.00;2.00;;;;;20.93;53.98;101931.60;110177;1264;23772;-41
2023/04/18 06:29:37;;;;;;;;;2.00;2.00;;;;;20.93;54.23;101934.58;110181;1251;22222;-39
2023/04/18 06:32:05;;;;;;;;;1.50;1.50;;;;;20.92;54.17;101939.52;110157;1250;22314;-41
2023/04/18 06:34:32;;;;;;;;;1.33;1.33;;;;;20.92;54.21;101943.56;110169;1249;19157;-39
2023/04/18 06:36:59;;;;;;;;;1.00;1.00;;;;;20.93;54.16;101944.22;110226;1264;19669;-41
2023/04/18 06:39:27;;;;;;;;;1.00;1.00;;;;;20.93;53.88;101943.67;110269;1249;20417;-40
2023/04/18 06:41:55;;;;;;;;;1.50;1.50;;;;;20.92;53.74;101944.59;110176;1264;19191;-40
2023/04/18 06:44:22;;;;;;;;;1.00;1.00;;;;;20.94;53.90;101939.90;110082;1251;20791;-39
2023/04/18 06:46:50;;;;;;;;;2.00;2.00;;;;;20.96;53.76;101941.93;110225;1264;21517;-39
2023/04/18 06:49:17;;;;;;;;;1.00;1.00;;;;;20.97;53.64;101948.48;110200;1265;19576;-41
2023/04/18 06:51:45;;;;;;;;;1.50;1.50;;;;;20.99;53.76;101952.64;110203;1265;20777;-41
2023/04/18 06:54:12;;;;;;;;;2.00;2.00;;;;;20.99;53.69;101952.98;110241;1256;23754;-41
2023/04/18 06:56:39;;;;;;;;;2.00;2.00;;;;;20.99;53.78;101953.36;110190;1250;22086;-42
2023/04/18 06:59:07;;;;;;;;;4.00;4.00;;;;;20.98;53.78;101957.86;110240;1265;19568;-41
2023/04/18 07:01:34;;;;;;;;;3.00;2.00;;;;;20.96;53.69;101953.55;110231;1251;23331;-45
2023/04/18 07:04:02;;;;;;;;;4.00;4.00;;;;;20.94;53.50;101957.39;110127;1264;23440;-41
2023/04/18 07:06:29;;;;;;;;;10.00;7.00;;;;;20.90;53.75;101951.17;110117;1265;19365;-42
2023/04/18 07:09:00;;;;;;;;;7.00;7.00;;;;;20.88;53.81;101954.46;110130;1265;21473;-41
2023/04/18 07:11:27;;;;;;;;;6.00;6.00;;;;;20.87;53.23;101951.50;110208;1266;23173;-39
2023/04/18 07:13:55;;;;;;;;;8.00;7.00;;;;;20.86;52.97;101952.54;110252;1264;19547;-40
2023/04/18 07:16:22;;;;;;;;;9.33;7.67;;;;;20.86;52.87;101952.55;110222;1250;20446;-40
2023/04/18 07:18:50;;;;;;;;;7.33;6.33;;;;;20.87;52.80;101953.35;110233;1265;19207;-40
2023/04/18 07:21:18;;;;;;;;;7.50;7.00;;;;;20.86;52.44;101953.97;110172;1264;20714;-40
2023/04/18 07:23:45;;;;;;;;;8.00;7.00;;;;;20.87;52.40;101955.15;110198;1264;20124;-41
2023/04/18 07:26:13;;;;;;;;;10.00;10.00;;;;;20.87;51.98;101955.27;110192;1264;19191;-41
2023/04/18 07:28:40;;;;;;;;;13.00;10.00;;;;;20.87;51.79;101960.17;110142;1265;19449;-40
2023/04/18 07:31:10;;;;;;;;;7.00;7.00;;;;;20.86;51.33;101962.12;110162;1264;23481;-40
2023/04/18 07:33:37;;;;;;;;;8.00;8.00;;;;;20.85;51.08;101961.52;110202;1260;23302;-40
2023/04/18 07:36:05;;;;;;;;;13.33;11.67;;;;;20.82;50.90;101963.80;110166;1265;20724;-41
2023/04/18 07:38:33;;;;;;;;;11.00;10.00;;;;;20.78;50.46;101965.25;110182;1251;21675;-40
2023/04/18 07:41:01;;;;;;;;;13.00;11.00;;;;;20.74;50.02;101963.95;110212;1251;23377;-41
2023/04/18 07:43:28;;;;;;;;;11.00;11.00;;;;;20.71;49.60;101965.73;110194;1265;19743;-40
2023/04/18 07:45:55;;;;;;;;;12.00;10.50;;;;;20.69;49.31;101964.52;110201;1251;21662;-41
2023/04/18 07:48:24;;;;;;;;;11.00;11.00;;;;;20.66;49.00;101966.77;110198;1251;20084;-40
2023/04/18 07:50:51;;;;;;;;;13.00;11.00;;;;;20.65;48.53;101972.89;110193;1257;23378;-38
2023/04/18 07:53:19;;;;;;;;;13.00;11.00;;;;;20.64;48.41;101974.80;110209;1251;20432;-40
2023/04/18 07:55:46;;;;;;;;;14.00;13.00;;;;;20.62;48.09;101972.06;110182;1265;19226;-41
2023/04/18 07:58:13;;;;;;;;;19.00;13.00;;;;;20.60;47.95;101973.54;110187;1251;23029;-40
2023/04/18 08:00:41;;;;;;;;;13.00;11.00;;;;;20.59;47.62;101975.27;110186;1251;21462;-40
2023/04/18 08:03:10;;;;;;;;;11.00;10.00;;;;;20.57;47.51;101976.16;110181;1251;22189;-39
2023/04/18 08:05:38;;;;;;;;;11.00;11.00;;;;;20.57;47.45;101981.05;110229;1264;20678;-40
2023/04/18 08:08:05;;;;;;;;;13.00;10.00;;;;;20.56;47.13;101980.41;110164;1264;20111;-40
2023/04/18 08:10:33;;;;;;;;;14.00;10.50;;;;;20.54;46.95;101983.50;110240;1264;23189;-40
2023/04/18 08:13:01;;;;;;;;;10.00;9.00;;;;;20.53;47.03;101980.36;110222;1264;20993;-39
2023/04/18 08:15:31;;;;;;;;;10.50;10.00;;;;;20.57;47.12;101981.09;110183;1250;20455;-40
2023/04/18 08:17:58;;;;;;;;;14.00;11.00;;;;;20.66;47.13;101984.98;110201;1251;21602;-40
2023/04/18 08:20:26;;;;;;;;;12.00;10.00;;;;;20.69;47.18;101984.10;110184;1250;21120;-41
2023/04/18 08:22:53;;;;;;;;;10.00;10.00;;;;;20.73;47.52;101986.27;110192;1251;20087;-39
2023/04/18 08:25:21;;;;;;;;;10.00;8.00;;;;;20.73;47.76;101985.02;110192;1264;18971;-40
2023/04/18 08:27:48;;;;;;;;;11.00;8.00;;;;;20.74;47.70;101984.20;109956;1264;304059;-40
2023/04/18 08:30:15;;;;;;;;;8.00;8.00;;;;;20.74;47.97;101984.32;110214;1251;21827;-40
2023/04/18 08:32:43;;;;;;;;;7.00;7.00;;;;;20.75;48.01;101982.41;110263;1264;19214;-39
2023/04/18 08:35:10;;;;;;;;;8.00;7.00;;;;;20.76;48.38;101982.33;110205;1264;21013;-39
2023/04/18 08:37:38;;;;;;;;;7.00;7.00;;;;;20.76;48.38;101979.94;110249;1264;21481;-39
2023/04/18 08:40:06;;;;;;;;;11.00;7.00;;;;;20.77;48.55;101982.61;110057;1264;19778;-39
2023/04/18 08:42:34;;;;;;;;;7.00;7.00;;;;;20.78;48.69;101980.54;110246;1264;20749;-40
2023/04/18 08:45:01;;;;;;;;;7.00;7.00;;;;;20.80;48.91;101980.89;110205;1251;21779;-39
2023/04/18 08:47:29;;;;;;;;;7.00;7.00;;;;;20.80;48.99;101982.15;110130;1264;19853;-40
2023/04/18 08:49:57;;;;;;;;;10.00;10.00;;;;;20.75;48.93;101984.23;110134;1264;20240;-41
2023/04/18 08:52:24;;;;;;;;;12.00;11.00;;;;;20.70;48.80;101981.14;110158;1264;21792;-42
2023/04/18 08:54:52;;;;;;;;;17.00;13.00;;;;;20.68;48.62;101980.95;110151;1251;19235;-41
2023/04/18 08:57:25;;;;;;;;;10.00;10.00;;;;;20.70;48.77;101982.97;110240;1264;19429;-44
2023/04/18 08:59:54;;;;;;;;;14.00;13.50;;;;;20.69;48.67;101985.36;110222;1264;22948;-40
2023/04/18 09:02:22;;;;;;;;;11.00;11.00;;;;;20.68;49.05;101980.60;110196;1250;22262;-41
2023/04/18 09:04:52;;;;;;;;;11.00;10.00;;;;;20.65;49.07;101982.34;110202;1264;23041;-41
2023/04/18 09:07:19;;;;;;;;;11.00;10.00;;;;;20.62;48.93;101984.46;110209;1264;22967;-43
2023/04/18 09:09:47;;;;;;;;;13.00;11.00;;;;;20.61;48.81;101987.11;110230;1264;23143;-40
2023/04/18 09:12:16;;;;;;;;;10.00;10.00;;;;;20.59;48.62;101987.45;110200;1260;23500;-42
2023/04/18 09:14:45;;;;;;;;;13.00;13.00;;;;;20.59;49.05;101986.00;110204;1250;24639;-40
2023/04/18 09:17:14;;;;;;;;;11.00;10.00;;;;;20.58;49.26;101991.88;110176;1251;21352;-40
2023/04/18 09:19:41;;;;;;;;;10.00;10.00;;;;;20.59;49.31;101987.09;110182;1264;19609;-38
2023/04/18 09:22:09;;;;;;;;;10.00;8.67;;;;;20.61;49.24;101979.48;110183;1264;21830;-39
2023/04/18 09:24:36;;;;;;;;;10.00;10.00;;;;;20.62;49.23;101978.41;110293;1256;19308;-41
2023/04/18 09:27:04;;;;;;;;;12.00;10.50;;;;;20.62;48.97;101982.96;110279;1264;19638;-40
2023/04/18 09:29:31;;;;;;;;;14.00;14.00;;;;;20.57;48.57;101980.15;110239;1251;22135;-41
2023/04/18 09:32:02;;;;;;;;;16.00;14.00;;;;;20.51;48.43;101977.48;110234;1251;19982;-41
2023/04/18 09:34:32;;;;;;;;;16.33;14.67;;;;;20.49;47.84;101981.67;110205;1252;20947;-41
2023/04/18 09:37:00;;;;;;;;;13.33;13.33;;;;;20.47;47.82;101981.27;110097;1251;23100;-40
2023/04/18 09:39:27;;;;;;;;;14.00;13.00;;;;;20.47;47.61;101975.83;110233;1264;20895;-40
2023/04/18 09:41:56;;;;;;;;;20.00;16.00;;;;;20.50;47.64;101978.56;110247;1264;19675;-40
2023/04/18 09:44:24;;;;;;;;;14.67;14.00;;;;;20.44;47.30;101981.30;110173;1251;22920;-39
2023/04/18 09:46:51;;;;;;;;;17.00;14.00;;;;;20.44;47.07;101977.85;110179;1250;20522;-40
2023/04/18 09:49:18;;;;;;;;;16.50;14.50;;;;;20.44;47.21;101978.98;110194;1264;20804;-44
2023/04/18 09:51:46;;;;;;;;;22.00;16.00;;;;;20.44;47.25;101977.38;110174;1251;21686;-41
2023/04/18 09:54:13;;;;;;;;;16.00;14.00;;;;;20.48;47.22;101977.95;110209;1260;22965;-41
2023/04/18 09:56:41;;;;;;;;;17.00;14.00;;;;;20.50;47.09;101977.70;110231;1264;21343;-42
2023/04/18 09:59:08;;;;;;;;;13.00;13.00;;;;;20.52;47.04;101974.44;110238;1251;21510;-41
2023/04/18 10:01:36;;;;;;;;;19.00;16.00;;;;;20.53;46.80;101970.58;110192;1250;22936;-41
2023/04/18 10:04:05;;;;;;;;;11.00;11.00;;;;;20.53;46.88;101969.77;110250;1264;23688;-41
2023/04/18 10:06:32;;;;;;;;;13.00;11.00;;;;;20.52;46.92;101969.95;110233;1257;22922;-41
2023/04/18 10:09:00;;;;;;;;;14.00;13.00;;;;;20.52;46.59;101970.61;110230;1264;19997;-41
2023/04/18 10:11:27;;;;;;;;;13.00;13.00;;;;;20.53;46.44;101963.64;110230;1251;21072;-40
2023/04/18 10:13:55;;;;;;;;;13.00;12.00;;;;;20.54;46.62;101965.55;110233;1260;21630;-41
2023/04/18 10:16:23;;;;;;;;;19.00;16.00;;;;;20.56;46.34;101961.93;110231;1250;20065;-40
2023/04/18 10:18:50;;;;;;;;;11.00;11.00;;;;;20.56;46.80;101959.92;110242;1264;20802;-41
2023/04/18 10:21:18;;;;;;;;;13.00;13.00;;;;;20.57;46.69;101958.42;110208;1264;20107;-40
2023/04/18 10:23:47;;;;;;;;;10.00;8.67;;;;;20.56;46.50;101958.47;110155;1251;20273;-42
2023/04/18 10:26:15;;;;;;;;;9.50;8.00;;;;;20.53;46.43;101954.89;110198;1264;23439;-41
2023/04/18 10:28:42;;;;;;;;;13.00;12.00;;;;;20.52;46.25;101950.27;110197;1257;21886;-41
2023/04/18 10:31:10;;;;;;;;;13.00;13.00;;;;;20.52;46.22;101954.27;110146;1264;19106;-42
2023/04/18 10:33:38;;;;;;;;;15.67;13.00;;;;;20.52;46.15;101955.98;110267;1264;22971;-40
2023/04/18 10:36:06;;;;;;;;;11.00;11.00;;;;;20.51;46.13;101949.48;110209;1264;22551;-40
2023/04/18 10:38:34;;;;;;;;;13.00;10.00;;;;;20.53;46.14;101948.62;110156;1251;25055;-40
2023/04/18 10:41:01;;;;;;;;;13.00;11.67;;;;;20.52;46.18;101947.89;110179;1264;19778;-40
2023/04/18 10:43:29;;;;;;;;;12.00;10.00;;;;;20.52;45.93;101947.61;110191;1264;20091;-40
2023/04/18 10:45:56;;;;;;;;;11.00;10.00;;;;;20.51;45.68;101945.48;110235;1264;19905;-40
2023/04/18 10:48:24;;;;;;;;;11.00;10.00;;;;;20.51;45.81;101942.02;110216;1264;23681;-40
2023/04/18 10:50:52;;;;;;;;;12.00;10.50;;;;;20.52;45.69;101941.93;110210;1264;20161;-40
2023/04/18 10:53:19;;;;;;;;;11.00;10.00;;;;;20.52;45.57;101937.55;110289;1250;19953;-41
2023/04/18 10:55:47;;;;;;;;;14.00;13.50;;;;;20.52;45.66;101938.48;110275;1251;20922;-40
2023/04/18 10:58:14;;;;;;;;;11.00;11.00;;;;;20.51;45.56;101942.36;110266;1264;20437;-40
2023/04/18 11:00:41;;;;;;;;;10.50;8.50;;;;;20.52;45.59;101939.03;110187;1251;21314;-41
2023/04/18 11:03:09;;;;;;;;;10.00;8.00;;;;;20.52;45.47;101943.19;110229;1250;24792;-41
2023/04/18 11:05:37;;;;;;;;;13.00;11.00;;;;;20.51;45.45;101937.63;110220;1264;23563;-41
2023/04/18 11:08:04;;;;;;;;;10.00;10.00;;;;;20.52;45.32;101934.68;110248;1250;19136;-40
2023/04/18 11:10:31;;;;;;;;;13.50;10.50;;;;;20.52;45.50;101936.32;110239;1265;20772;-39
2023/04/18 11:13:03;;;;;;;;;11.00;8.00;;;;;20.52;45.33;101936.50;110190;1266;21819;-39